Main page
METAR-TAF:

METAR-TAF

Airports :

Roman Tmetuchl International Airport

Koror, Babeldaob, Palau

latitude: 07-22N, longitude: 134-32E, elevation: 54 m

Current weather observation

The report was made 15 minutes ago, at 23:54 UTC
Wind 6 kt from the West
Temperature 29°C
Humidity 74%
Pressure 1012 hPa
Visibility: 24.1 km
Scattered clouds at a height of 1600 ft, Towering cumulus.
Broken clouds at a height of 12000 ft

METAR: PTRO 172354Z 28006KT 15SM SCT016TCU BKN120 KN300 29/24 A2988 RMK TCU ALQDS

Time: 09:09 (00:09 UTC)

Forecast

The report was made 30 minutes ago, at 23:39 UTC
Forecast valid from 18 at 00 UTC to 18 at 24 UTC
Wind 8 kt from the West
Visibility: 10 km
Scattered clouds at a height of 1600 ft
Broken clouds at a height of 12000 ft
showers in vicinity

TAF: PTRO 172339Z 1800/1824 28008KT P6SM VCSH SCT016 BKN120

Weather observations and forecasts of more than 4000 airports (METAR and TAF reports).

The available stations are represented by yellow and red dots on the map.

Hover mouse over dot to see the name of the station.

Then click to see weather observations and forecasts.

To change the map : click on the green buttons with a black cross to zoom in, on the green button with a dash to zoom out, or on the green arrows for adjacent maps.


METAR-TAF: